Time;durP1;ratioP1;P1;durP2;ratioP2;P2;SDS_P1;SDS_P2;PMS_P1;PMS_P2;Temp;Humidity;BMP_temperature;BMP_pressure;BME280_temperature;BME280_humidity;BME280_pressure;Samples;Min_cycle;Max_cycle;Signal;HPM_P1;HPM_P2
2021/11/05 00:00:38;;;;;;;9.90;6.63;;;;;;;8.38;91.93;97742.44;5041079;28;20040;-60
2021/11/05 00:03:04;;;;;;;12.70;7.55;;;;;;;8.03;92.48;97741.94;5042288;28;20060;-57
2021/11/05 00:05:31;;;;;;;12.95;6.80;;;;;;;8.30;91.67;97746.16;5040397;28;20060;-57
2021/11/05 00:07:56;;;;;;;10.57;7.07;;;;;;;7.95;95.21;97744.81;5035932;28;20090;-58
2021/11/05 00:10:22;;;;;;;10.30;6.38;;;;;;;8.31;90.77;97747.03;5040983;28;20033;-58
2021/11/05 00:12:48;;;;;;;13.60;6.78;;;;;;;8.01;93.61;97743.75;5041681;28;20417;-58
2021/11/05 00:15:13;;;;;;;10.98;6.97;;;;;;;8.11;93.01;97747.75;5041926;28;20179;-58
2021/11/05 00:17:39;;;;;;;13.98;6.60;;;;;;;8.24;91.56;97750.75;5041836;28;20116;-59
2021/11/05 00:20:06;;;;;;;11.13;6.40;;;;;;;8.04;92.70;97754.03;5040918;28;20822;-60
2021/11/05 00:22:31;;;;;;;13.88;7.28;;;;;;;8.24;89.98;97762.00;5039493;28;20041;-59
2021/11/05 00:24:57;;;;;;;11.45;6.75;;;;;;;8.16;92.61;97758.81;5036413;28;20023;-59
2021/11/05 00:27:25;;;;;;;10.95;6.45;;;;;;;8.11;93.25;97761.56;5038892;28;20037;-57
2021/11/05 00:29:50;;;;;;;12.50;7.10;;;;;;;7.76;92.54;97755.00;5040917;28;20032;-59
2021/11/05 00:32:15;;;;;;;11.13;6.50;;;;;;;7.71;93.70;97769.88;5040520;28;20040;-57
2021/11/05 00:34:41;;;;;;;10.70;6.97;;;;;;;7.95;93.22;97769.94;5041798;28;20044;-58
2021/11/05 00:37:06;;;;;;;10.10;6.18;;;;;;;8.40;92.28;97769.22;5041115;28;20047;-58
2021/11/05 00:39:32;;;;;;;11.40;6.50;;;;;;;7.98;93.05;97767.25;5041662;28;20033;-58
2021/11/05 00:41:58;;;;;;;10.07;5.93;;;;;;;8.11;94.23;97771.13;5038006;28;20037;-59
2021/11/05 00:44:24;;;;;;;10.45;6.80;;;;;;;7.74;93.09;97772.38;5041496;28;20029;-58
2021/11/05 00:46:49;;;;;;;11.95;6.80;;;;;;;7.65;94.07;97768.31;5041753;28;20070;-57
2021/11/05 00:49:15;;;;;;;11.27;7.03;;;;;;;7.74;92.88;97780.16;5042448;28;20464;-59
2021/11/05 00:51:40;;;;;;;12.85;6.60;;;;;;;8.02;91.63;97781.81;5038959;28;20047;-57
2021/11/05 00:54:07;;;;;;;9.25;6.07;;;;;;;8.07;93.50;97780.75;5042315;28;20082;-60
2021/11/05 00:56:33;;;;;;;13.98;7.10;;;;;;;8.04;91.95;97785.22;5041460;28;20063;-57
2021/11/05 00:58:58;;;;;;;10.00;6.78;;;;;;;7.72;95.48;97790.59;5041581;28;20964;-57
2021/11/05 01:01:24;;;;;;;11.60;6.20;;;;;;;7.68;94.63;97782.94;5039368;28;20041;-59
2021/11/05 01:03:50;;;;;;;10.50;6.45;;;;;;;7.98;93.89;97790.63;5041755;28;20575;-59
2021/11/05 01:06:17;;;;;;;11.27;5.95;;;;;;;7.74;97.66;97790.53;5041577;28;20025;-59
2021/11/05 01:08:44;;;;;;;11.27;6.30;;;;;;;7.90;93.97;97788.28;5041862;28;20044;-59
2021/11/05 01:11:09;;;;;;;12.35;6.35;;;;;;;7.48;95.52;97792.25;5038711;28;20041;-59
2021/11/05 01:13:35;;;;;;;14.68;6.72;;;;;;;7.75;93.42;97793.97;5041786;28;20043;-57
2021/11/05 01:16:01;;;;;;;11.00;6.38;;;;;;;7.82;94.02;97796.31;5041642;28;20067;-59
2021/11/05 01:18:26;;;;;;;9.38;5.90;;;;;;;7.79;95.49;97791.22;5041852;28;20096;-59
2021/11/05 01:20:51;;;;;;;10.32;5.97;;;;;;;7.70;93.20;97792.38;5040373;28;20052;-59
2021/11/05 01:23:19;;;;;;;9.77;6.03;;;;;;;7.74;92.96;97795.75;5041622;28;20036;-58
2021/11/05 01:25:44;;;;;;;14.02;6.55;;;;;;;8.17;91.42;97796.88;5041080;28;20063;-59
2021/11/05 01:28:09;;;;;;;9.80;6.40;;;;;;;7.98;92.61;97798.41;5041516;28;20738;-59
2021/11/05 01:30:35;;;;;;;11.15;5.35;;;;;;;8.04;92.09;97803.41;5040134;28;20598;-58
2021/11/05 01:33:06;;;;;;;11.80;6.70;;;;;;;7.73;92.69;97807.00;5041360;28;20928;-59
2021/11/05 01:35:33;;;;;;;9.80;6.43;;;;;;;7.89;92.42;97804.75;5041148;28;20052;-58
2021/11/05 01:37:58;;;;;;;10.20;6.35;;;;;;;7.78;93.99;97805.13;5041665;28;20075;-57
2021/11/05 01:40:24;;;;;;;10.32;6.65;;;;;;;7.95;93.56;97801.13;5040494;28;20108;-59
2021/11/05 01:42:49;;;;;;;10.65;6.18;;;;;;;7.70;93.47;97804.50;5040958;28;20031;-57
2021/11/05 01:45:15;;;;;;;8.43;5.80;;;;;;;8.15;93.40;97803.03;5041016;28;20017;-58
2021/11/05 01:47:41;;;;;;;9.55;6.25;;;;;;;8.04;92.95;97809.44;5041275;28;20025;-59
2021/11/05 01:50:08;;;;;;;9.70;6.28;;;;;;;7.89;93.48;97813.41;5040168;28;20766;-58
2021/11/05 01:52:34;;;;;;;9.35;6.00;;;;;;;8.06;92.73;97819.78;5028651;28;20115;-58
2021/11/05 01:54:59;;;;;;;11.27;6.82;;;;;;;7.89;91.91;97813.41;5040816;28;20104;-58
2021/11/05 01:57:25;;;;;;;11.32;5.60;;;;;;;8.36;95.85;97814.41;5039752;28;20431;-59
2021/11/05 01:59:52;;;;;;;9.73;6.22;;;;;;;8.03;93.63;97814.69;5040295;28;20112;-58
2021/11/05 02:02:18;;;;;;;9.88;6.15;;;;;;;8.03;95.64;97812.94;5039878;28;20155;-58
2021/11/05 02:04:44;;;;;;;9.80;6.68;;;;;;;7.93;91.93;97813.31;5040592;28;20554;-57
2021/11/05 02:07:11;;;;;;;14.30;6.35;;;;;;;7.62;92.96;97817.72;5039288;28;20658;-58
2021/11/05 02:09:38;;;;;;;10.48;6.57;;;;;;;7.82;92.79;97817.09;5040655;28;20507;-58
2021/11/05 02:12:04;;;;;;;9.95;6.10;;;;;;;8.02;91.47;97813.00;5039043;28;20047;-57
2021/11/05 02:14:30;;;;;;;9.65;6.22;;;;;;;8.44;90.86;97815.06;5039363;28;20558;-57
2021/11/05 02:16:58;;;;;;;9.65;6.72;;;;;;;8.06;91.73;97817.19;5040175;28;20041;-59
2021/11/05 02:19:25;;;;;;;12.70;6.50;;;;;;;8.21;89.25;97818.41;5040483;28;20020;-57
2021/11/05 02:21:53;;;;;;;9.63;6.00;;;;;;;8.37;89.71;97818.72;5039226;28;20395;-58
2021/11/05 02:24:21;;;;;;;10.50;6.57;;;;;;;7.88;92.71;97822.09;5040422;28;20036;-59
2021/11/05 02:26:47;;;;;;;12.15;6.88;;;;;;;7.82;92.99;97824.88;5039813;28;20075;-60
2021/11/05 02:29:13;;;;;;;11.95;6.78;;;;;;;8.09;91.81;97825.72;5040840;28;20028;-57
2021/11/05 02:31:40;;;;;;;10.57;6.22;;;;;;;7.91;91.85;97832.38;5038895;28;20116;-59
2021/11/05 02:34:05;;;;;;;11.27;6.55;;;;;;;7.91;94.06;97831.53;5040141;28;20697;-59
2021/11/05 02:36:31;;;;;;;11.32;6.70;;;;;;;7.93;93.47;97828.88;5040017;28;20506;-58
2021/11/05 02:38:57;;;;;;;11.15;6.53;;;;;;;7.76;93.37;97832.03;5040281;28;20127;-57
2021/11/05 02:41:22;;;;;;;11.57;6.18;;;;;;;8.02;91.93;97833.78;5038746;28;20044;-58
2021/11/05 02:43:49;;;;;;;13.65;6.75;;;;;;;8.23;92.62;97838.22;5040338;28;20140;-58
2021/11/05 02:46:14;;;;;;;12.30;7.25;;;;;;;8.16;92.09;97835.88;5039896;28;20882;-58
2021/11/05 02:48:40;;;;;;;10.10;6.50;;;;;;;7.78;93.92;97836.28;5039966;28;20029;-58
2021/11/05 02:51:06;;;;;;;12.82;7.13;;;;;;;8.04;91.62;97842.38;5036800;28;20060;-59
2021/11/05 02:53:31;;;;;;;14.13;6.22;;;;;;;8.16;93.76;97847.16;5038668;28;20052;-58
2021/11/05 02:55:57;;;;;;;11.57;7.00;;;;;;;7.90;91.85;97846.28;5039408;28;20683;-57
2021/11/05 02:58:23;;;;;;;11.80;7.00;;;;;;;8.09;92.72;97851.69;5040167;28;20052;-59
2021/11/05 03:00:48;;;;;;;13.25;6.85;;;;;;;8.05;90.71;97855.31;5038529;28;20591;-57
2021/11/05 03:03:15;;;;;;;12.10;7.07;;;;;;;7.89;91.71;97854.94;5039709;28;20051;-59
2021/11/05 03:05:41;;;;;;;14.85;6.68;;;;;;;7.60;93.58;97857.63;5039325;28;20025;-59
2021/11/05 03:08:07;;;;;;;11.10;6.80;;;;;;;7.68;94.07;97861.69;5039969;28;20840;-58
2021/11/05 03:10:33;;;;;;;12.88;6.75;;;;;;;8.05;93.20;97864.81;5038429;28;20037;-59
2021/11/05 03:12:58;;;;;;;11.02;6.55;;;;;;;7.87;97.97;97872.31;5039495;28;20056;-58
2021/11/05 03:15:24;;;;;;;10.88;6.78;;;;;;;7.82;95.44;97871.63;5038618;28;20101;-57
2021/11/05 03:17:49;;;;;;;12.52;7.10;;;;;;;7.78;92.29;97862.25;5039863;28;20312;-59
2021/11/05 03:20:16;;;;;;;8.90;6.32;;;;;;;7.92;92.13;97877.34;5038847;28;20067;-60
2021/11/05 03:22:42;;;;;;;10.90;6.28;;;;;;;7.74;94.86;97871.03;5039261;28;20035;-59
2021/11/05 03:25:09;;;;;;;10.70;6.57;;;;;;;7.80;95.98;97878.63;5038746;28;20071;-59
2021/11/05 03:27:34;;;;;;;12.20;6.40;;;;;;;7.70;92.82;97882.38;5039910;28;20118;-57
2021/11/05 03:30:01;;;;;;;11.95;6.63;;;;;;;7.69;93.63;97883.31;5039262;28;20896;-57
2021/11/05 03:32:26;;;;;;;12.25;6.70;;;;;;;7.56;94.92;97892.38;5038941;28;20497;-58
2021/11/05 03:34:51;;;;;;;14.80;6.88;;;;;;;7.82;95.72;97889.78;5043457;28;20112;-58
2021/11/05 03:37:17;;;;;;;10.25;6.43;;;;;;;7.50;96.25;97894.25;5043098;28;20036;-57
2021/11/05 03:39:42;;;;;;;9.43;6.15;;;;;;;8.28;95.75;97897.84;5043435;28;20036;-59
2021/11/05 03:42:08;;;;;;;12.10;6.78;;;;;;;8.06;93.77;97898.53;5040985;28;20656;-59
2021/11/05 03:44:33;;;;;;;11.40;6.65;;;;;;;7.67;95.52;97903.28;5043429;28;20131;-58
2021/11/05 03:46:59;;;;;;;13.32;6.82;;;;;;;7.65;94.07;97912.84;5043309;28;20096;-58
2021/11/05 03:49:25;;;;;;;11.50;7.10;;;;;;;7.97;92.72;97916.19;5043546;28;20036;-58
2021/11/05 03:51:50;;;;;;;12.43;7.38;;;;;;;7.73;93.40;97911.69;5040349;28;20106;-57
2021/11/05 03:54:16;;;;;;;9.55;6.45;;;;;;;7.91;92.18;97918.06;5043448;28;20057;-57
2021/11/05 03:56:41;;;;;;;11.70;6.70;;;;;;;7.71;94.72;97923.88;5042524;28;20036;-59
2021/11/05 03:59:06;;;;;;;14.07;7.38;;;;;;;7.57;94.49;97926.03;5043520;28;20060;-58
2021/11/05 04:01:32;;;;;;;12.45;6.97;;;;;;;7.78;94.32;97929.75;5041905;28;20573;-59
2021/11/05 04:03:58;;;;;;;12.48;7.40;;;;;;;7.67;92.67;97937.84;5043325;28;20025;-58
2021/11/05 04:06:24;;;;;;;10.90;6.68;;;;;;;7.49;95.76;97939.25;5042240;28;20057;-59
2021/11/05 04:08:50;;;;;;;13.20;7.80;;;;;;;7.57;94.34;97931.22;5042964;28;20025;-58
2021/11/05 04:11:16;;;;;;;11.60;7.28;;;;;;;7.62;96.15;97942.34;5041620;28;20075;-57
2021/11/05 04:13:42;;;;;;;13.77;7.35;;;;;;;7.51;94.96;97942.66;5042955;28;20025;-59
2021/11/05 04:16:07;;;;;;;10.85;6.75;;;;;;;7.51;96.49;97950.44;5042711;28;20524;-57
2021/11/05 04:18:34;;;;;;;12.27;7.28;;;;;;;7.37;96.09;97951.72;5042900;28;20135;-59
2021/11/05 04:20:59;;;;;;;9.77;6.85;;;;;;;7.61;96.86;97952.75;5041412;28;20077;-59
2021/11/05 04:23:24;;;;;;;10.88;7.00;;;;;;;7.62;95.19;97960.50;5042904;28;20029;-59
2021/11/05 04:25:50;;;;;;;11.88;6.85;;;;;;;7.70;93.74;97957.66;5041920;28;20148;-58
2021/11/05 04:28:16;;;;;;;11.88;7.03;;;;;;;7.79;94.54;97953.97;5043006;28;20131;-58
2021/11/05 04:30:43;;;;;;;12.65;7.00;;;;;;;7.40;95.60;97952.50;5041193;28;20110;-59
2021/11/05 04:33:10;;;;;;;10.45;5.78;;;;;;;7.69;96.93;97959.44;5041754;28;20049;-58
2021/11/05 04:35:35;;;;;;;12.77;7.25;;;;;;;7.50;95.10;97961.72;5041179;28;20147;-61
2021/11/05 04:38:00;;;;;;;11.65;6.93;;;;;;;7.66;96.55;97956.91;5042093;28;20498;-57
2021/11/05 04:40:26;;;;;;;13.93;7.63;;;;;;;7.56;95.76;97958.09;5041027;28;20033;-58
2021/11/05 04:42:52;;;;;;;11.43;7.38;;;;;;;7.83;93.64;97958.16;5042115;28;20056;-57
2021/11/05 04:45:17;;;;;;;14.38;8.18;;;;;;;7.55;94.51;97961.56;5041676;28;20017;-57
2021/11/05 04:47:43;;;;;;;12.07;7.55;;;;;;;7.58;93.41;97968.44;5042506;28;20033;-58
2021/11/05 04:50:08;;;;;;;14.00;7.80;;;;;;;7.31;94.41;97971.75;5039913;28;20565;-59
2021/11/05 04:52:35;;;;;;;12.68;7.40;;;;;;;7.36;95.97;97968.22;5040813;28;20461;-57
2021/11/05 04:55:01;;;;;;;13.50;7.82;;;;;;;7.70;93.71;97962.88;5042083;28;20028;-58
2021/11/05 04:57:26;;;;;;;12.18;7.55;;;;;;;7.65;94.54;97969.97;5042144;28;20033;-57
2021/11/05 04:59:52;;;;;;;13.88;7.88;;;;;;;7.57;94.55;97971.91;5041808;28;20037;-57
2021/11/05 05:02:18;;;;;;;13.48;7.38;;;;;;;7.90;92.52;97973.53;5040453;28;20041;-57
2021/11/05 05:04:46;;;;;;;10.55;6.53;;;;;;;7.90;95.68;97973.53;5039957;28;20425;-58
2021/11/05 05:07:12;;;;;;;10.15;6.43;;;;;;;8.13;95.62;97971.09;5041181;28;20734;-58
2021/11/05 05:09:37;;;;;;;11.15;7.05;;;;;;;7.92;92.15;97978.66;5041822;28;20771;-59
2021/11/05 05:12:03;;;;;;;11.63;6.05;;;;;;;8.17;96.28;97983.94;5039153;28;20037;-56
2021/11/05 05:14:28;;;;;;;11.43;7.35;;;;;;;7.67;93.37;97986.34;5041822;28;20064;-57
2021/11/05 05:16:54;;;;;;;10.40;6.47;;;;;;;8.26;97.79;97988.84;5041568;28;20075;-58
2021/11/05 05:19:20;;;;;;;12.07;7.05;;;;;;;7.95;94.54;97988.09;5041394;28;20032;-57
2021/11/05 05:21:46;;;;;;;11.63;7.15;;;;;;;7.75;93.10;97988.72;5040518;28;20045;-58
2021/11/05 05:24:11;;;;;;;10.63;7.05;;;;;;;7.99;93.95;97994.91;5042014;28;20040;-58
2021/11/05 05:26:37;;;;;;;10.35;6.70;;;;;;;7.97;94.27;97989.75;5040977;28;20147;-59
2021/11/05 05:29:03;;;;;;;12.27;7.57;;;;;;;7.78;92.72;98001.59;5041778;28;20020;-57
2021/11/05 05:31:28;;;;;;;9.02;5.60;;;;;;;8.21;94.62;97998.53;5040003;28;20036;-58
2021/11/05 05:33:54;;;;;;;11.55;6.93;;;;;;;7.71;91.96;98006.97;5041374;28;20025;-59
2021/11/05 05:36:19;;;;;;;11.10;7.20;;;;;;;8.21;90.86;98016.72;5040849;28;20810;-57
2021/11/05 05:38:44;;;;;;;12.68;7.00;;;;;;;7.83;90.81;98017.88;5041098;28;20052;-58
2021/11/05 05:41:11;;;;;;;12.00;7.07;;;;;;;7.59;93.41;98016.84;5039860;28;20033;-57
2021/11/05 05:43:36;;;;;;;11.98;6.85;;;;;;;8.32;90.98;98018.97;5041358;28;20041;-59
2021/11/05 05:46:02;;;;;;;10.15;6.68;;;;;;;8.02;92.31;98019.03;5040915;28;20033;-59
2021/11/05 05:48:27;;;;;;;8.65;6.15;;;;;;;8.03;90.83;98028.53;5041549;28;20541;-57
2021/11/05 05:50:53;;;;;;;9.32;5.95;;;;;;;8.28;93.35;98033.81;5038693;28;20179;-58
2021/11/05 05:53:20;;;;;;;9.45;6.10;;;;;;;7.97;93.10;98039.09;5041056;28;20733;-57
2021/11/05 05:55:46;;;;;;;10.80;6.45;;;;;;;7.76;93.97;98045.78;5038520;28;20037;-58
2021/11/05 05:58:11;;;;;;;10.52;6.28;;;;;;;7.82;94.96;98045.59;5041386;28;20031;-59
2021/11/05 06:00:37;;;;;;;9.23;6.05;;;;;;;7.75;94.28;98046.66;5039457;28;20127;-59
2021/11/05 06:03:02;;;;;;;10.93;6.70;;;;;;;7.98;96.29;98055.56;5027507;28;20024;-59
2021/11/05 06:05:28;;;;;;;9.95;5.70;;;;;;;8.09;94.92;98058.69;5042704;28;20041;-59
2021/11/05 06:07:53;;;;;;;9.35;5.70;;;;;;;7.79;98.24;98061.25;5043905;28;20478;-58
2021/11/05 06:10:18;;;;;;;9.60;6.22;;;;;;;8.02;97.52;98067.56;5042779;28;20024;-58
2021/11/05 06:12:44;;;;;;;9.27;5.18;;;;;;;8.41;96.69;98067.22;5043687;28;20108;-56
2021/11/05 06:15:09;;;;;;;10.20;6.00;;;;;;;8.10;94.75;98065.56;5042882;28;20045;-57
2021/11/05 06:17:35;;;;;;;8.60;6.05;;;;;;;7.87;95.88;98066.25;5041718;28;20668;-58
2021/11/05 06:20:04;;;;;;;10.27;6.82;;;;;;;7.88;92.66;98076.59;5043666;28;20067;-57
2021/11/05 06:22:29;;;;;;;9.88;6.05;;;;;;;7.98;97.57;98081.53;5042593;28;20043;-59
2021/11/05 06:24:57;;;;;;;11.27;7.05;;;;;;;7.72;94.99;98083.97;5043523;28;20021;-56
2021/11/05 06:27:23;;;;;;;11.95;6.20;;;;;;;7.87;96.27;98089.63;5037892;28;20040;-56
2021/11/05 06:29:48;;;;;;;12.27;6.82;;;;;;;8.10;95.11;98091.53;5023399;28;20028;-55
2021/11/05 06:32:13;;;;;;;13.57;6.88;;;;;;;7.55;94.60;98098.31;5039887;28;20041;-59
2021/11/05 06:34:39;;;;;;;11.05;6.93;;;;;;;7.91;93.68;98102.47;5042686;28;20582;-57
2021/11/05 06:37:04;;;;;;;11.63;7.13;;;;;;;8.05;92.54;98114.19;5041957;28;20048;-59
2021/11/05 06:39:29;;;;;;;11.30;6.13;;;;;;;7.91;95.08;98118.06;5042775;28;20032;-58
2021/11/05 06:41:55;;;;;;;11.50;6.47;;;;;;;7.86;93.08;98117.31;5041381;28;20159;-57
2021/11/05 06:44:21;;;;;;;10.57;6.63;;;;;;;7.93;94.76;98118.00;5043034;28;20040;-58
2021/11/05 06:46:46;;;;;;;10.55;6.13;;;;;;;7.59;93.15;98128.47;5041955;28;20047;-58
2021/11/05 06:49:11;;;;;;;11.90;6.70;;;;;;;7.71;93.02;98135.94;5043099;28;20380;-56
2021/11/05 06:51:37;;;;;;;11.10;6.70;;;;;;;7.64;93.49;98134.41;5039855;28;20041;-57
2021/11/05 06:54:02;;;;;;;10.13;6.80;;;;;;;7.98;91.55;98144.72;5043198;28;20395;-57
2021/11/05 06:56:28;;;;;;;13.75;6.60;;;;;;;8.18;92.56;98151.94;5041789;28;20041;-59
2021/11/05 06:58:56;;;;;;;11.98;6.47;;;;;;;8.16;92.64;98150.25;5042768;28;20116;-57
2021/11/05 07:01:22;;;;;;;13.02;6.85;;;;;;;8.11;97.77;98155.59;5040548;28;20044;-58
2021/11/05 07:03:48;;;;;;;13.75;6.85;;;;;;;8.49;97.62;98162.31;5042790;28;20052;-57
2021/11/05 07:06:13;;;;;;;10.32;6.35;;;;;;;7.91;93.75;98164.81;5042312;28;20041;-58
2021/11/05 07:08:38;;;;;;;11.90;6.85;;;;;;;8.14;92.82;98171.09;5042031;28;20102;-59
2021/11/05 07:11:04;;;;;;;12.73;6.78;;;;;;;8.16;94.98;98171.94;5040997;28;20128;-56
2021/11/05 07:13:30;;;;;;;12.32;6.88;;;;;;;8.06;94.61;98178.25;5042146;28;20743;-57
2021/11/05 07:15:55;;;;;;;14.35;6.60;;;;;;;8.16;94.40;98177.13;5041294;28;20033;-58
2021/11/05 07:18:21;;;;;;;12.98;6.32;;;;;;;8.27;92.92;98182.84;5042412;28;20071;-56
2021/11/05 07:20:47;;;;;;;10.88;6.90;;;;;;;8.07;92.77;98191.22;5040988;28;20044;-57
2021/11/05 07:23:13;;;;;;;10.82;6.90;;;;;;;7.95;94.59;98195.91;5042405;28;20029;-56
2021/11/05 07:25:39;;;;;;;10.48;6.10;;;;;;;8.29;97.21;98201.84;5042210;28;20075;-57
2021/11/05 07:28:05;;;;;;;11.65;6.65;;;;;;;8.15;92.31;98205.75;5042224;28;20052;-57
2021/11/05 07:30:31;;;;;;;10.45;6.63;;;;;;;8.14;93.44;98206.63;5041448;28;20063;-57
2021/11/05 07:32:56;;;;;;;16.23;7.10;;;;;;;8.13;92.42;98210.13;5042023;28;20025;-58
2021/11/05 07:35:22;;;;;;;9.68;6.28;;;;;;;8.41;93.63;98216.22;5041525;28;20045;-58
2021/11/05 07:37:49;;;;;;;11.98;7.13;;;;;;;8.18;92.45;98224.69;5040882;28;20491;-59
2021/11/05 07:40:16;;;;;;;12.07;6.72;;;;;;;8.76;95.88;98222.19;5041078;28;20036;-56
2021/11/05 07:42:43;;;;;;;10.90;6.40;;;;;;;8.36;93.91;98232.84;5041301;28;20120;-58
2021/11/05 07:45:12;;;;;;;10.93;5.65;;;;;;;8.96;92.77;98229.38;5041728;28;20864;-57
2021/11/05 07:47:38;;;;;;;10.48;6.50;;;;;;;8.74;94.59;98243.94;5041917;28;20048;-58
2021/11/05 07:50:05;;;;;;;14.23;7.30;;;;;;;8.56;91.42;98247.91;5041636;28;20475;-56
2021/11/05 07:52:30;;;;;;;10.82;7.00;;;;;;;8.47;91.94;98256.81;5039981;28;20040;-58
2021/11/05 07:54:55;;;;;;;18.92;7.53;;;;;;;8.76;89.21;98252.53;5041481;28;20029;-59
2021/11/05 07:57:21;;;;;;;13.85;6.43;;;;;;;9.10;92.23;98256.72;5041581;28;20037;-59
2021/11/05 07:59:47;;;;;;;9.75;6.85;;;;;;;8.66;90.59;98263.22;5041907;28;20086;-56
2021/11/05 08:02:13;;;;;;;9.73;6.43;;;;;;;8.86;92.13;98262.63;5040657;28;20068;-57
2021/11/05 08:04:39;;;;;;;10.57;6.20;;;;;;;9.12;89.71;98265.34;5041902;28;20028;-59
2021/11/05 08:07:04;;;;;;;11.85;6.65;;;;;;;9.01;90.57;98269.13;5041388;28;20127;-56
2021/11/05 08:09:30;;;;;;;9.55;6.20;;;;;;;9.15;88.88;98275.66;5042046;28;20135;-58
2021/11/05 08:11:55;;;;;;;12.45;6.93;;;;;;;9.09;86.30;98276.69;5040558;28;20033;-58
2021/11/05 08:14:21;;;;;;;8.45;5.88;;;;;;;9.30;88.40;98277.78;5041908;28;20029;-56
2021/11/05 08:16:46;;;;;;;11.02;6.63;;;;;;;8.85;88.74;98288.69;5039621;28;20115;-58
2021/11/05 08:19:12;;;;;;;12.02;6.90;;;;;;;8.91;88.13;98296.28;5041585;28;20033;-57
2021/11/05 08:21:37;;;;;;;12.00;6.57;;;;;;;9.35;89.95;98293.25;5042407;28;20075;-58
2021/11/05 08:24:04;;;;;;;9.70;6.63;;;;;;;9.06;87.96;98298.47;5043809;28;20021;-58
2021/11/05 08:26:31;;;;;;;13.75;7.43;;;;;;;9.17;88.90;98305.94;5043310;28;20601;-57
2021/11/05 08:28:57;;;;;;;10.23;6.90;;;;;;;9.41;90.92;98312.16;5043898;28;20021;-59
2021/11/05 08:31:22;;;;;;;11.18;7.10;;;;;;;9.31;87.67;98307.25;5041827;28;20040;-57
2021/11/05 08:33:50;;;;;;;11.40;6.38;;;;;;;9.60;87.31;98322.81;5044162;28;20029;-59
2021/11/05 08:36:18;;;;;;;10.10;6.15;;;;;;;9.55;89.62;98321.25;5041879;28;20541;-57
2021/11/05 08:38:44;;;;;;;9.75;6.90;;;;;;;9.42;87.76;98324.25;5043375;28;20142;-57
2021/11/05 08:41:16;;;;;;;10.18;6.28;;;;;;;9.98;89.49;98328.53;5042327;28;20512;-57
2021/11/05 08:43:41;;;;;;;11.75;7.18;;;;;;;10.16;82.78;98326.22;5043882;28;20727;-58
2021/11/05 08:46:07;;;;;;;9.25;6.43;;;;;;;10.11;85.21;98336.81;5043148;28;20041;-59
2021/11/05 08:48:34;;;;;;;10.27;6.90;;;;;;;10.30;85.89;98336.19;5043417;28;20395;-57
2021/11/05 08:51:05;;;;;;;12.30;6.80;;;;;;;10.21;83.21;98332.97;5040873;28;20117;-57
2021/11/05 08:53:30;;;;;;;10.05;7.00;;;;;;;10.43;86.44;98337.47;5043257;28;20028;-58
2021/11/05 08:55:56;;;;;;;11.07;6.60;;;;;;;10.34;84.28;98337.78;5043180;28;20040;-57
2021/11/05 08:58:21;;;;;;;8.93;6.50;;;;;;;10.83;83.54;98343.88;5043608;28;20032;-57
2021/11/05 09:00:47;;;;;;;10.32;7.00;;;;;;;10.36;84.64;98347.25;5041909;28;20041;-57
2021/11/05 09:03:12;;;;;;;9.63;6.60;;;;;;;10.97;84.65;98344.22;5042642;28;20108;-57
2021/11/05 09:05:39;;;;;;;10.25;6.70;;;;;;;10.54;81.54;98340.56;5042967;28;20045;-59
2021/11/05 09:08:06;;;;;;;10.88;6.82;;;;;;;10.52;79.55;98342.38;5043058;28;20031;-58
2021/11/05 09:10:31;;;;;;;10.20;7.30;;;;;;;10.42;82.19;98351.41;5041749;28;20037;-58
2021/11/05 09:12:57;;;;;;;9.68;6.82;;;;;;;10.68;80.43;98363.56;5042381;28;20043;-59
2021/11/05 09:15:25;;;;;;;10.75;7.13;;;;;;;10.46;80.66;98367.81;5042604;28;20677;-57
2021/11/05 09:17:53;;;;;;;10.45;7.30;;;;;;;10.88;82.25;98362.84;5042944;28;20495;-58
2021/11/05 09:20:19;;;;;;;10.68;7.15;;;;;;;11.06;81.48;98373.50;5042313;28;20059;-58
2021/11/05 09:22:46;;;;;;;13.15;6.88;;;;;;;10.98;80.78;98374.63;5042484;28;20124;-56
2021/11/05 09:25:12;;;;;;;10.00;7.18;;;;;;;10.36;81.84;98372.50;5042439;28;20028;-59
2021/11/05 09:27:37;;;;;;;9.45;6.82;;;;;;;10.27;82.16;98375.38;5042901;28;20025;-58
2021/11/05 09:30:05;;;;;;;9.77;7.30;;;;;;;10.69;81.35;98380.91;5042155;28;20998;-57
2021/11/05 09:32:31;;;;;;;10.27;7.50;;;;;;;10.68;80.34;98388.78;5040549;28;20091;-59
2021/11/05 09:34:56;;;;;;;10.85;7.55;;;;;;;10.79;78.07;98381.44;5042744;28;20067;-57
2021/11/05 09:37:22;;;;;;;9.70;6.70;;;;;;;10.93;81.94;98392.22;5042361;28;20060;-57
2021/11/05 09:39:47;;;;;;;10.88;7.22;;;;;;;10.52;80.16;98402.34;5042529;28;20064;-57
2021/11/05 09:42:14;;;;;;;9.60;6.93;;;;;;;10.86;80.89;98403.78;5041527;28;20080;-57
2021/11/05 09:44:39;;;;;;;9.63;6.70;;;;;;;10.97;79.20;98401.66;5042332;28;20052;-58
2021/11/05 09:47:05;;;;;;;10.40;7.53;;;;;;;11.23;78.42;98407.69;5041973;28;20068;-58
2021/11/05 09:49:32;;;;;;;12.07;7.53;;;;;;;10.75;78.60;98413.75;5042873;28;20025;-58
2021/11/05 09:52:00;;;;;;;10.35;6.78;;;;;;;10.80;80.47;98409.22;5039481;28;20136;-59
2021/11/05 09:54:28;;;;;;;9.65;6.28;;;;;;;10.90;79.18;98415.84;5042672;28;20048;-57
2021/11/05 09:56:54;;;;;;;11.23;6.93;;;;;;;10.83;81.06;98418.72;5041755;28;20060;-58
2021/11/05 09:59:20;;;;;;;8.60;6.57;;;;;;;11.04;80.91;98422.31;5042396;28;20021;-56
2021/11/05 10:01:46;;;;;;;9.85;6.32;;;;;;;11.11;80.18;98426.41;5040062;28;20142;-58
2021/11/05 10:04:12;;;;;;;11.68;7.30;;;;;;;10.47;80.38;98427.72;5042348;28;20028;-57
2021/11/05 10:06:38;;;;;;;9.57;6.57;;;;;;;10.30;81.63;98432.66;5042046;28;20912;-58
2021/11/05 10:09:12;;;;;;;10.90;6.60;;;;;;;10.46;82.04;98436.47;5042156;28;20483;-56
2021/11/05 10:11:37;;;;;;;10.13;7.28;;;;;;;10.53;83.76;98442.31;5038513;28;20139;-57
2021/11/05 10:14:03;;;;;;;10.45;7.80;;;;;;;10.70;81.22;98436.56;5041678;28;20021;-58
2021/11/05 10:16:30;;;;;;;10.65;7.63;;;;;;;10.51;82.88;98438.91;5041333;28;20037;-58
2021/11/05 10:19:05;;;;;;;11.57;8.00;;;;;;;10.32;82.97;98452.56;5042169;28;20339;-57
2021/11/05 10:21:45;;;;;;;12.50;8.07;;;;;;;10.05;83.05;98451.66;5040584;28;20576;-57
2021/11/05 10:24:13;;;;;;;11.82;8.20;;;;;;;10.43;83.83;98449.63;5041659;28;20066;-57
2021/11/05 10:26:40;;;;;;;11.10;7.65;;;;;;;10.16;84.71;98449.59;5041172;28;20041;-58
2021/11/05 10:29:07;;;;;;;11.02;7.65;;;;;;;10.54;83.57;98455.31;5040569;28;20029;-58
2021/11/05 10:31:35;;;;;;;10.95;7.68;;;;;;;10.32;84.40;98454.34;5039909;28;20102;-57
2021/11/05 10:34:02;;;;;;;14.60;8.15;;;;;;;10.32;83.50;98452.56;5041535;28;20037;-57
2021/11/05 10:36:27;;;;;;;12.32;8.15;;;;;;;10.54;84.46;98454.47;5041386;28;20083;-58
2021/11/05 10:39:02;;;;;;;12.52;8.13;;;;;;;10.38;83.88;98459.34;5041276;28;20087;-58
2021/11/05 10:41:30;;;;;;;11.35;7.80;;;;;;;9.98;84.11;98447.53;5039779;28;20713;-57
2021/11/05 10:43:59;;;;;;;10.88;7.57;;;;;;;10.60;83.74;98465.56;5041572;28;20041;-58
2021/11/05 10:46:33;;;;;;;11.27;7.80;;;;;;;10.43;83.82;98460.03;5040494;28;20037;-58
2021/11/05 10:49:06;;;;;;;11.43;7.82;;;;;;;10.50;84.58;98464.16;5041300;28;20028;-56
2021/11/05 10:51:32;;;;;;;;;;;;;;;10.50;85.09;98469.38;5040090;28;20139;-58
2021/11/05 10:53:59;;;;;;;11.57;7.70;;;;;;;10.61;84.51;98475.09;5040727;28;19955;-58
2021/11/05 10:56:26;;;;;;;13.75;8.50;;;;;;;10.84;82.39;98473.44;5040985;28;20041;-59
2021/11/05 10:59:00;;;;;;;11.60;8.00;;;;;;;10.53;85.27;98471.91;5040787;28;20392;-58
2021/11/05 11:01:30;;;;;;;12.10;8.52;;;;;;;10.67;84.55;98466.19;5039592;28;20590;-60
2021/11/05 11:03:59;;;;;;;14.13;7.85;;;;;;;10.92;84.00;98471.44;5040679;28;20028;-59
2021/11/05 11:06:29;;;;;;;12.65;9.00;;;;;;;10.77;81.80;98471.94;5040815;28;20037;-58
2021/11/05 11:08:59;;;;;;;14.68;9.80;;;;;;;10.87;81.91;98472.50;5040806;28;20028;-59
2021/11/05 11:11:33;;;;;;;14.80;9.30;;;;;;;10.95;82.64;98473.94;5037535;28;20048;-58
2021/11/05 11:14:04;;;;;;;14.05;9.25;;;;;;;10.45;82.08;98473.88;5040666;28;20052;-58
2021/11/05 11:16:35;;;;;;;16.27;8.70;;;;;;;10.39;83.26;98481.91;5040606;28;20040;-60
2021/11/05 11:19:12;;;;;;;11.93;8.18;;;;;;;11.16;81.79;98479.31;5041115;28;20023;-59
2021/11/05 11:21:52;;;;;;;12.77;8.85;;;;;;;10.79;81.37;98485.81;5038109;28;20049;-59
2021/11/05 11:24:21;;;;;;;11.77;8.23;;;;;;;10.69;81.34;98473.97;5039701;28;20035;-60
2021/11/05 11:26:48;;;;;;;11.07;7.32;;;;;;;10.79;80.52;98484.06;5040619;28;20037;-60
2021/11/05 11:29:15;;;;;;;12.40;8.30;;;;;;;10.70;80.46;98486.13;5039430;28;20724;-60